createdAt,value
2023-05-09T00:00:45.848Z,14
2023-05-09T00:02:00.015Z,15
2023-05-09T00:03:14.195Z,13
2023-05-09T00:05:42.472Z,14
2023-05-09T00:06:56.524Z,14
2023-05-09T00:08:10.616Z,14
2023-05-09T00:09:24.905Z,14
2023-05-09T00:11:53.149Z,14
2023-05-09T00:13:07.259Z,14
2023-05-09T00:14:21.437Z,14
2023-05-09T00:16:49.611Z,14
2023-05-09T00:18:03.769Z,14
2023-05-09T00:19:18.074Z,15
2023-05-09T00:21:46.111Z,15
2023-05-09T00:23:00.287Z,15
2023-05-09T00:24:14.379Z,14
2023-05-09T00:26:42.661Z,16
2023-05-09T00:27:56.778Z,14
2023-05-09T00:29:10.883Z,16
2023-05-09T00:30:25.137Z,15
2023-05-09T00:32:53.363Z,15
2023-05-09T00:34:07.495Z,16
2023-05-09T00:35:21.521Z,16
2023-05-09T00:37:49.857Z,15
2023-05-09T00:39:04.084Z,17
2023-05-09T00:40:18.141Z,16
2023-05-09T00:42:46.424Z,16
2023-05-09T00:44:00.521Z,17
2023-05-09T00:45:14.863Z,15
2023-05-09T00:47:42.987Z,16
2023-05-09T00:48:57.154Z,16
2023-05-09T00:50:11.164Z,15
2023-05-09T00:51:25.334Z,16
2023-05-09T00:53:53.552Z,15
2023-05-09T00:55:07.718Z,16
2023-05-09T00:56:21.981Z,16
2023-05-09T00:58:50.208Z,15
2023-05-09T01:00:04.352Z,15
2023-05-09T01:01:18.516Z,16
2023-05-09T01:03:46.916Z,16
2023-05-09T01:05:00.762Z,16
2023-05-09T01:06:14.937Z,15
2023-05-09T01:08:43.298Z,15
2023-05-09T01:09:57.352Z,15
2023-05-09T01:11:11.449Z,15
2023-05-09T01:12:25.620Z,15
2023-05-09T01:14:54.018Z,15
2023-05-09T01:16:08.059Z,14
2023-05-09T01:17:22.158Z,15
2023-05-09T01:19:50.497Z,15
2023-05-09T01:21:04.571Z,16
2023-05-09T01:22:18.638Z,15
2023-05-09T01:24:46.920Z,16
2023-05-09T01:26:01.026Z,15
2023-05-09T01:27:15.189Z,16
2023-05-09T01:29:43.469Z,17
2023-05-09T01:30:57.658Z,16
2023-05-09T01:32:11.688Z,16
2023-05-09T01:33:26.088Z,16
2023-05-09T01:35:54.114Z,16
2023-05-09T01:37:08.289Z,17
2023-05-09T01:38:22.397Z,15
2023-05-09T01:40:50.621Z,16
2023-05-09T01:42:04.780Z,15
2023-05-09T01:43:19.092Z,16
2023-05-09T01:45:47.189Z,17
2023-05-09T01:47:01.396Z,15
2023-05-09T01:48:15.624Z,14
2023-05-09T01:50:43.730Z,17
2023-05-09T01:51:57.853Z,17
2023-05-09T01:53:11.963Z,15
2023-05-09T01:54:26.300Z,15
2023-05-09T01:56:54.395Z,15
2023-05-09T01:58:08.530Z,17
2023-05-09T01:59:22.638Z,15
2023-05-09T02:01:50.897Z,16
2023-05-09T02:03:05.089Z,15
2023-05-09T02:04:19.272Z,15
2023-05-09T02:06:47.462Z,16
2023-05-09T02:08:01.595Z,16
2023-05-09T02:09:15.713Z,16
2023-05-09T02:11:44.152Z,17
2023-05-09T02:12:58.114Z,14
2023-05-09T02:14:12.241Z,14
2023-05-09T02:15:26.439Z,17
2023-05-09T02:17:54.664Z,15
2023-05-09T02:19:08.816Z,16
2023-05-09T02:20:22.911Z,16
2023-05-09T02:22:51.141Z,17
2023-05-09T02:24:05.402Z,17
2023-05-09T02:25:19.473Z,17
2023-05-09T02:27:47.699Z,17
2023-05-09T02:29:01.821Z,18
2023-05-09T02:30:16.063Z,17
2023-05-09T02:32:44.265Z,17
2023-05-09T02:33:58.364Z,17
2023-05-09T02:35:12.685Z,17
2023-05-09T02:36:26.896Z,17
2023-05-09T02:38:54.897Z,16
2023-05-09T02:40:09.076Z,17
2023-05-09T02:43:51.702Z,17
2023-05-09T02:45:05.664Z,17
2023-05-09T02:46:19.832Z,18
2023-05-09T02:48:47.968Z,17
2023-05-09T02:50:02.134Z,17
2023-05-09T02:51:16.312Z,18
2023-05-09T02:53:44.601Z,18
2023-05-09T02:54:58.657Z,18
2023-05-09T02:56:12.782Z,18
2023-05-09T02:57:26.899Z,17
2023-05-09T02:59:55.301Z,17
2023-05-09T03:01:09.441Z,18
2023-05-09T03:02:23.603Z,17
2023-05-09T03:04:51.871Z,19
2023-05-09T03:06:05.864Z,18
2023-05-09T03:07:19.990Z,18
2023-05-09T03:09:48.229Z,16
2023-05-09T03:11:02.381Z,18
2023-05-09T03:12:16.674Z,17
2023-05-09T03:14:44.824Z,19
2023-05-09T03:15:59.093Z,19
2023-05-09T03:17:13.012Z,17
2023-05-09T03:19:41.304Z,17
2023-05-09T03:20:55.504Z,19
2023-05-09T03:22:09.674Z,19
2023-05-09T03:23:23.736Z,19
2023-05-09T03:25:52.172Z,19
2023-05-09T03:27:06.100Z,19
2023-05-09T03:28:20.289Z,19
2023-05-09T03:30:48.519Z,20
2023-05-09T03:32:02.891Z,20
2023-05-09T03:33:16.865Z,19
2023-05-09T03:35:45.082Z,19
2023-05-09T03:36:59.185Z,20
2023-05-09T03:38:13.425Z,20
2023-05-09T03:40:41.754Z,19
2023-05-09T03:41:55.800Z,18
2023-05-09T03:43:09.930Z,19
2023-05-09T03:44:24.027Z,19
2023-05-09T03:45:38.086Z,18
2023-05-09T03:46:52.509Z,19
2023-05-09T03:48:06.503Z,19
2023-05-09T03:49:20.506Z,20
2023-05-09T03:51:48.829Z,19
2023-05-09T03:53:02.975Z,20
2023-05-09T03:54:17.052Z,19
2023-05-09T03:56:45.409Z,19
2023-05-09T03:57:59.530Z,19
2023-05-09T03:59:13.582Z,19
2023-05-09T04:01:41.891Z,18
2023-05-09T04:02:56.216Z,20
2023-05-09T04:04:10.299Z,19
2023-05-09T04:05:24.261Z,20
2023-05-09T04:07:52.622Z,20
2023-05-09T04:09:06.621Z,20
2023-05-09T04:10:20.776Z,19
2023-05-09T04:12:49.259Z,20
2023-05-09T04:14:03.186Z,20
2023-05-09T04:15:17.510Z,21
2023-05-09T04:17:45.640Z,19
2023-05-09T04:18:59.760Z,19
2023-05-09T04:20:13.862Z,19
2023-05-09T04:22:42.634Z,24
2023-05-09T04:23:56.268Z,29
2023-05-09T04:25:10.666Z,23
2023-05-09T04:26:24.678Z,21
2023-05-09T04:28:52.761Z,21
2023-05-09T04:30:06.917Z,19
2023-05-09T04:31:21.142Z,19
2023-05-09T04:33:49.407Z,21
2023-05-09T04:35:03.464Z,19
2023-05-09T04:38:45.862Z,19
2023-05-09T04:41:14.141Z,18
2023-05-09T04:43:42.403Z,19
2023-05-09T04:44:56.549Z,20
2023-05-09T04:46:10.643Z,20
2023-05-09T04:47:24.981Z,18
2023-05-09T04:49:53.051Z,18
2023-05-09T04:51:07.200Z,20
2023-05-09T04:52:21.303Z,17
2023-05-09T04:54:49.709Z,19
2023-05-09T04:56:03.752Z,19
2023-05-09T04:57:19.051Z,19
2023-05-09T04:59:46.236Z,19
2023-05-09T05:01:00.292Z,17
2023-05-09T05:02:14.449Z,19
2023-05-09T05:04:42.813Z,20
2023-05-09T05:05:56.800Z,19
2023-05-09T05:07:10.884Z,19
2023-05-09T05:08:25.176Z,19
2023-05-09T05:10:53.315Z,20
2023-05-09T05:12:09.281Z,20
2023-05-09T05:13:21.756Z,18
2023-05-09T05:15:49.969Z,19
2023-05-09T05:17:03.987Z,18
2023-05-09T05:18:18.115Z,17
2023-05-09T05:20:46.431Z,19
2023-05-09T05:22:00.477Z,20
2023-05-09T05:23:14.654Z,19
2023-05-09T05:25:43.028Z,20
2023-05-09T05:26:57.090Z,20
2023-05-09T05:28:11.164Z,19
2023-05-09T05:29:25.402Z,19
2023-05-09T05:31:53.759Z,19
2023-05-09T05:33:07.815Z,19
2023-05-09T05:34:21.858Z,21
2023-05-09T05:36:50.235Z,20
2023-05-09T05:38:04.288Z,20
2023-05-09T05:39:18.423Z,17
2023-05-09T05:41:46.733Z,19
2023-05-09T05:43:00.756Z,19
2023-05-09T05:44:14.923Z,20
2023-05-09T05:46:43.241Z,19
2023-05-09T05:47:57.376Z,18
2023-05-09T05:49:11.712Z,18
2023-05-09T05:50:25.592Z,20
2023-05-09T05:52:53.856Z,18
2023-05-09T05:54:07.989Z,18
2023-05-09T05:55:22.181Z,19
2023-05-09T05:57:50.453Z,17
2023-05-09T05:59:04.617Z,18
2023-05-09T06:00:18.701Z,19
2023-05-09T06:02:46.961Z,19
2023-05-09T06:04:01.242Z,18
2023-05-09T06:05:15.417Z,18
2023-05-09T06:07:43.532Z,18
2023-05-09T06:08:57.622Z,17
2023-05-09T06:10:11.700Z,17
2023-05-09T06:11:25.976Z,18
2023-05-09T06:13:54.155Z,16
2023-05-09T06:15:08.250Z,17
2023-05-09T06:16:22.445Z,17
2023-05-09T06:18:51.514Z,17
2023-05-09T06:20:04.937Z,17
2023-05-09T06:21:19.101Z,16
2023-05-09T06:24:04.308Z,16
2023-05-09T06:25:01.332Z,17
2023-05-09T06:26:15.438Z,16
2023-05-09T06:28:43.740Z,18
2023-05-09T06:29:58.082Z,17
2023-05-09T06:31:12.063Z,16
2023-05-09T06:32:26.355Z,16
2023-05-09T06:34:54.372Z,18
2023-05-09T06:36:08.501Z,18
2023-05-09T06:37:22.771Z,18
2023-05-09T06:39:50.989Z,17
2023-05-09T06:41:05.076Z,17
2023-05-09T06:42:19.218Z,18
2023-05-09T06:44:47.516Z,18
2023-05-09T06:46:01.610Z,18
2023-05-09T06:47:15.712Z,17
2023-05-09T06:49:44.162Z,16
2023-05-09T06:50:58.116Z,17
2023-05-09T06:52:12.348Z,17
2023-05-09T06:53:26.480Z,17
2023-05-09T06:55:54.689Z,16
2023-05-09T06:57:08.841Z,17
2023-05-09T06:58:22.912Z,18
2023-05-09T07:00:51.212Z,17
2023-05-09T07:02:05.466Z,17
2023-05-09T07:03:19.554Z,16
2023-05-09T07:05:47.869Z,16
2023-05-09T07:07:01.865Z,17
2023-05-09T07:08:16.015Z,17
2023-05-09T07:10:44.436Z,17
2023-05-09T07:11:58.423Z,17
2023-05-09T07:13:12.605Z,17
2023-05-09T07:14:26.714Z,18
2023-05-09T07:17:02.171Z,15
2023-05-09T07:18:09.262Z,16
2023-05-09T07:19:23.253Z,16
2023-05-09T07:21:51.434Z,14
2023-05-09T07:23:05.662Z,14
2023-05-09T07:24:19.803Z,14
2023-05-09T07:26:48.004Z,15
2023-05-09T07:28:02.120Z,16
2023-05-09T07:29:16.264Z,15
2023-05-09T07:31:44.690Z,14
2023-05-09T07:32:58.767Z,15
2023-05-09T07:34:12.883Z,14
2023-05-09T07:36:41.022Z,14
2023-05-09T07:37:55.230Z,12
2023-05-09T07:39:09.339Z,13
2023-05-09T07:40:23.486Z,13
2023-05-09T07:42:51.762Z,12
2023-05-09T07:44:05.883Z,12
2023-05-09T07:45:22.095Z,12
2023-05-09T07:47:48.310Z,12
2023-05-09T07:49:02.478Z,12
2023-05-09T07:50:16.564Z,11
2023-05-09T07:52:44.992Z,10
2023-05-09T07:53:58.990Z,10
2023-05-09T07:55:13.192Z,11
2023-05-09T07:56:27.210Z,11
2023-05-09T07:58:55.882Z,11
2023-05-09T08:00:09.585Z,10
2023-05-09T08:01:23.955Z,10
2023-05-09T08:03:52.252Z,10
2023-05-09T08:05:06.127Z,10
2023-05-09T08:06:20.358Z,11
2023-05-09T08:08:48.487Z,10
2023-05-09T08:10:02.699Z,10
2023-05-09T08:11:16.866Z,10
2023-05-09T08:13:45.111Z,11
2023-05-09T08:14:59.231Z,10
2023-05-09T08:16:13.335Z,10
2023-05-09T08:17:27.458Z,10
2023-05-09T08:19:55.784Z,9
2023-05-09T08:21:09.847Z,10
2023-05-09T08:22:24.078Z,10
2023-05-09T08:24:52.461Z,9
2023-05-09T08:26:06.380Z,9
2023-05-09T08:27:20.664Z,9
2023-05-09T08:29:54.041Z,9
2023-05-09T08:31:02.974Z,8
2023-05-09T08:32:17.086Z,8
2023-05-09T08:34:45.443Z,8
2023-05-09T08:35:59.465Z,8
2023-05-09T08:37:15.271Z,7
2023-05-09T08:38:27.751Z,8
2023-05-09T08:40:56.125Z,8
2023-05-09T08:42:10.117Z,8
2023-05-09T08:43:24.312Z,9
2023-05-09T08:45:52.764Z,8
2023-05-09T08:47:06.827Z,8
2023-05-09T08:48:20.820Z,7
2023-05-09T08:49:34.985Z,7
2023-05-09T08:50:49.131Z,9
2023-05-09T08:52:03.233Z,8
2023-05-09T08:53:17.342Z,7
2023-05-09T08:55:45.681Z,7
2023-05-09T08:56:59.822Z,6
2023-05-09T08:58:13.851Z,7
2023-05-09T09:00:42.148Z,7
2023-05-09T09:01:56.294Z,7
2023-05-09T09:03:10.417Z,5
2023-05-09T09:04:24.667Z,5
2023-05-09T09:06:52.908Z,6
2023-05-09T09:08:06.908Z,6
2023-05-09T09:09:21.067Z,5
2023-05-09T09:11:49.369Z,5
2023-05-09T09:13:03.530Z,5
2023-05-09T09:14:17.578Z,5
2023-05-09T09:16:46.132Z,5
2023-05-09T09:18:00.396Z,5
2023-05-09T09:19:14.164Z,5
2023-05-09T09:21:42.448Z,4
2023-05-09T09:22:56.501Z,4
2023-05-09T09:24:10.645Z,5
2023-05-09T09:25:24.878Z,4
2023-05-09T09:27:53.137Z,4
2023-05-09T09:29:07.200Z,5
2023-05-09T09:30:21.341Z,4
2023-05-09T09:32:49.732Z,5
2023-05-09T09:34:03.869Z,4
2023-05-09T09:35:18.015Z,4
2023-05-09T09:37:46.236Z,5
2023-05-09T09:39:00.310Z,5
2023-05-09T09:40:14.928Z,5
2023-05-09T09:42:42.675Z,5
2023-05-09T09:43:58.724Z,5
2023-05-09T09:45:10.917Z,5
2023-05-09T09:46:25.265Z,5
2023-05-09T09:48:53.296Z,5
2023-05-09T09:50:07.488Z,5
2023-05-09T09:51:21.612Z,5
2023-05-09T09:53:49.975Z,4
2023-05-09T09:55:04.070Z,4
2023-05-09T09:56:18.307Z,5
2023-05-09T09:58:46.499Z,5
2023-05-09T10:00:00.530Z,5
2023-05-09T10:01:14.756Z,5
2023-05-09T10:03:42.999Z,5
2023-05-09T10:04:57.143Z,4
2023-05-09T10:06:11.437Z,5
2023-05-09T10:07:25.472Z,4
2023-05-09T10:09:53.666Z,5
2023-05-09T10:11:07.742Z,6
2023-05-09T10:12:21.907Z,6
2023-05-09T10:14:50.175Z,6
2023-05-09T10:16:04.488Z,6
2023-05-09T10:17:18.536Z,7
2023-05-09T10:19:46.684Z,7
2023-05-09T10:21:00.852Z,6
2023-05-09T10:22:15.045Z,6
2023-05-09T10:24:43.265Z,6
2023-05-09T10:25:57.370Z,6
2023-05-09T10:27:11.483Z,6
2023-05-09T10:28:25.682Z,6
2023-05-09T10:30:53.915Z,6
2023-05-09T10:32:08.142Z,6
2023-05-09T10:33:22.275Z,6
2023-05-09T10:35:50.498Z,5
2023-05-09T10:37:04.605Z,5
2023-05-09T10:38:18.786Z,6
2023-05-09T10:40:46.961Z,5
2023-05-09T10:42:01.166Z,5
2023-05-09T10:43:15.226Z,5
2023-05-09T10:45:43.484Z,4
2023-05-09T10:46:57.740Z,4
2023-05-09T10:48:11.754Z,4
2023-05-09T10:49:25.891Z,4
2023-05-09T10:51:54.131Z,4
2023-05-09T10:53:08.277Z,4
2023-05-09T10:54:22.515Z,3
2023-05-09T10:56:50.675Z,3
2023-05-09T10:58:04.848Z,3
2023-05-09T10:59:19.029Z,3
2023-05-09T11:01:47.230Z,3
2023-05-09T11:03:01.492Z,2
2023-05-09T11:04:15.492Z,2
2023-05-09T11:06:43.768Z,2
2023-05-09T11:07:57.889Z,2
2023-05-09T11:09:12.078Z,2
2023-05-09T11:10:26.180Z,2
2023-05-09T11:12:56.811Z,2
2023-05-09T11:14:08.547Z,2
2023-05-09T11:15:22.755Z,2
2023-05-09T11:17:51.082Z,3
2023-05-09T11:19:05.091Z,3
2023-05-09T11:20:19.251Z,3
2023-05-09T11:22:47.704Z,4
2023-05-09T11:24:01.736Z,4
2023-05-09T11:25:16.031Z,4
2023-05-09T11:27:44.025Z,4
2023-05-09T11:28:58.181Z,4
2023-05-09T11:30:12.476Z,4
2023-05-09T11:31:26.542Z,3
2023-05-09T11:33:54.725Z,3
2023-05-09T11:35:08.849Z,3
2023-05-09T11:36:23.080Z,3
2023-05-09T11:38:51.282Z,3
2023-05-09T11:40:05.400Z,3
2023-05-09T11:41:19.509Z,3
2023-05-09T11:43:47.755Z,3
2023-05-09T11:45:01.921Z,3
2023-05-09T11:46:16.077Z,3
2023-05-09T11:48:44.306Z,3
2023-05-09T11:49:58.466Z,3
2023-05-09T11:51:12.610Z,3
2023-05-09T11:52:26.910Z,3
2023-05-09T11:54:54.957Z,4
2023-05-09T11:56:09.091Z,4
2023-05-09T11:57:23.313Z,4
2023-05-09T11:59:51.524Z,4
2023-05-09T12:01:05.688Z,4
2023-05-09T12:02:19.972Z,4
2023-05-09T12:04:48.022Z,5
2023-05-09T12:06:02.156Z,4
2023-05-09T12:07:16.260Z,4
2023-05-09T12:09:44.663Z,5
2023-05-09T12:10:58.684Z,5
2023-05-09T12:12:12.835Z,4
2023-05-09T12:13:27.192Z,4
2023-05-09T12:15:55.337Z,4
2023-05-09T12:17:09.400Z,5
2023-05-09T12:18:23.524Z,5
2023-05-09T12:20:51.767Z,4
2023-05-09T12:22:05.967Z,5
2023-05-09T12:23:20.073Z,5
2023-05-09T12:25:48.379Z,5
2023-05-09T12:27:02.502Z,5
2023-05-09T12:28:16.594Z,5
2023-05-09T12:30:44.901Z,5
2023-05-09T12:31:59.141Z,5
2023-05-09T12:33:13.202Z,5
2023-05-09T12:34:27.410Z,5
2023-05-09T12:36:55.594Z,5
2023-05-09T12:38:09.775Z,5
2023-05-09T12:39:24.005Z,5
2023-05-09T12:42:01.573Z,5
2023-05-09T12:43:06.143Z,5
2023-05-09T12:44:20.379Z,5
2023-05-09T12:46:48.605Z,5
2023-05-09T12:48:02.795Z,5
2023-05-09T12:49:16.834Z,5
2023-05-09T12:51:45.119Z,5
2023-05-09T12:53:03.148Z,5
2023-05-09T12:54:13.461Z,5
2023-05-09T12:56:41.570Z,5
2023-05-09T12:57:55.799Z,4
2023-05-09T12:59:09.928Z,5
2023-05-09T13:00:24.104Z,5
2023-05-09T13:02:52.474Z,5
2023-05-09T13:04:06.501Z,5
2023-05-09T13:05:20.666Z,4
2023-05-09T13:07:48.859Z,4
2023-05-09T13:09:02.987Z,4
2023-05-09T13:10:17.121Z,4
2023-05-09T13:12:45.548Z,4
2023-05-09T13:13:59.676Z,4
2023-05-09T13:15:13.886Z,3
2023-05-09T13:17:42.129Z,4
2023-05-09T13:18:56.024Z,4
2023-05-09T13:20:10.212Z,4
2023-05-09T13:21:24.285Z,4
2023-05-09T13:23:52.729Z,4
2023-05-09T13:25:07.187Z,5
2023-05-09T13:26:20.872Z,5
2023-05-09T13:27:35.039Z,5
2023-05-09T13:28:49.153Z,5
2023-05-09T13:30:03.233Z,5
2023-05-09T13:31:17.488Z,5
2023-05-09T13:33:45.620Z,5
2023-05-09T13:34:59.951Z,5
2023-05-09T13:36:13.989Z,5
2023-05-09T13:38:42.266Z,5
2023-05-09T13:39:56.402Z,5
2023-05-09T13:41:10.486Z,5
2023-05-09T13:42:24.588Z,5
2023-05-09T13:44:53.017Z,7
2023-05-09T13:46:07.169Z,6
2023-05-09T13:47:21.097Z,6
2023-05-09T13:49:49.340Z,6
2023-05-09T13:51:03.556Z,6
2023-05-09T13:52:17.621Z,7
2023-05-09T13:54:45.989Z,6
2023-05-09T13:56:00.029Z,6
2023-05-09T13:57:14.258Z,6
2023-05-09T13:59:42.511Z,6
2023-05-09T14:00:56.575Z,6
2023-05-09T14:02:10.777Z,6
2023-05-09T14:03:24.928Z,7
2023-05-09T14:05:53.187Z,6
2023-05-09T14:07:07.251Z,6
2023-05-09T14:08:21.479Z,6
2023-05-09T14:10:49.774Z,6
2023-05-09T14:12:03.769Z,6
2023-05-09T14:13:17.896Z,6
2023-05-09T14:15:46.190Z,6
2023-05-09T14:17:00.336Z,7
2023-05-09T14:18:17.722Z,6
2023-05-09T14:20:42.719Z,6
2023-05-09T14:21:56.819Z,6
2023-05-09T14:23:11.005Z,6
2023-05-09T14:24:25.104Z,6
2023-05-09T14:26:53.362Z,6
2023-05-09T14:28:07.504Z,6
2023-05-09T14:29:21.612Z,6
2023-05-09T14:31:49.987Z,6
2023-05-09T14:33:04.146Z,6
2023-05-09T14:34:18.146Z,6
2023-05-09T14:36:46.566Z,6
2023-05-09T14:38:00.564Z,6
2023-05-09T14:39:14.825Z,6
2023-05-09T14:41:42.982Z,5
2023-05-09T14:42:57.236Z,5
2023-05-09T14:44:11.215Z,6
2023-05-09T14:45:25.384Z,5
2023-05-09T14:47:53.687Z,6
2023-05-09T14:49:07.853Z,6
2023-05-09T14:50:21.880Z,6
2023-05-09T14:52:50.208Z,7
2023-05-09T14:54:04.766Z,7
2023-05-09T14:55:18.463Z,7
2023-05-09T14:57:46.691Z,7
2023-05-09T14:59:00.787Z,7
2023-05-09T15:00:21.343Z,7
2023-05-09T15:02:43.300Z,7
2023-05-09T15:03:57.391Z,8
2023-05-09T15:05:11.634Z,9
2023-05-09T15:06:25.638Z,8
2023-05-09T15:08:53.924Z,9
2023-05-09T15:10:08.062Z,9
2023-05-09T15:11:22.511Z,10
2023-05-09T15:13:50.554Z,10
2023-05-09T15:15:04.708Z,10
2023-05-09T15:16:18.727Z,10
2023-05-09T15:18:46.990Z,10
2023-05-09T15:20:01.087Z,9
2023-05-09T15:21:15.236Z,9
2023-05-09T15:23:43.678Z,10
2023-05-09T15:24:57.667Z,10
2023-05-09T15:26:11.768Z,10
2023-05-09T15:27:25.963Z,10
2023-05-09T15:29:54.356Z,11
2023-05-09T15:32:22.426Z,11
2023-05-09T15:34:50.671Z,5
2023-05-09T15:36:04.914Z,4
2023-05-09T15:37:19.133Z,4
2023-05-09T15:39:47.264Z,3
2023-05-09T15:41:01.363Z,3
2023-05-09T15:42:15.641Z,4
2023-05-09T15:44:43.776Z,4
2023-05-09T15:45:57.944Z,3
2023-05-09T15:47:12.100Z,4
2023-05-09T15:48:26.186Z,4
2023-05-09T15:50:54.432Z,4
2023-05-09T15:52:08.592Z,4
2023-05-09T15:53:22.702Z,4
2023-05-09T15:55:51.055Z,4
2023-05-09T15:57:05.102Z,4
2023-05-09T15:58:19.342Z,5
2023-05-09T16:00:47.505Z,5
2023-05-09T16:02:01.828Z,5
2023-05-09T16:03:15.965Z,5
2023-05-09T16:05:44.063Z,5
2023-05-09T16:06:58.169Z,6
2023-05-09T16:08:12.307Z,5
2023-05-09T16:09:26.435Z,5
2023-05-09T16:11:54.711Z,5
2023-05-09T16:13:08.997Z,5
2023-05-09T16:14:22.993Z,5
2023-05-09T16:16:51.232Z,5
2023-05-09T16:18:05.414Z,15
2023-05-09T16:19:19.547Z,13
2023-05-09T16:21:47.839Z,6
2023-05-09T16:23:01.925Z,7
2023-05-09T16:24:16.061Z,16
2023-05-09T16:26:44.584Z,5
2023-05-09T16:27:58.463Z,6
2023-05-09T16:29:12.725Z,4
2023-05-09T16:30:26.697Z,4
2023-05-09T16:32:55.004Z,4
2023-05-09T16:34:09.083Z,4
2023-05-09T16:35:23.238Z,4
2023-05-09T16:37:51.453Z,4
2023-05-09T16:39:05.685Z,4
2023-05-09T16:40:19.804Z,4
2023-05-09T16:42:48.045Z,4
2023-05-09T16:44:02.156Z,5
2023-05-09T16:45:16.299Z,4
2023-05-09T16:47:44.672Z,4
2023-05-09T16:48:58.696Z,4
2023-05-09T16:50:12.962Z,4
2023-05-09T16:51:27.004Z,4
2023-05-09T16:53:55.356Z,4
2023-05-09T16:55:09.410Z,4
2023-05-09T16:56:23.603Z,4
2023-05-09T16:58:51.751Z,5
2023-05-09T17:00:05.989Z,5
2023-05-09T17:01:20.136Z,4
2023-05-09T17:03:48.294Z,4
2023-05-09T17:05:02.436Z,4
2023-05-09T17:06:16.715Z,4
2023-05-09T17:08:44.937Z,4
2023-05-09T17:09:59.519Z,4
2023-05-09T17:11:13.145Z,4
2023-05-09T17:12:27.237Z,4
2023-05-09T17:14:55.662Z,4
2023-05-09T17:16:09.745Z,4
2023-05-09T17:17:23.799Z,4
2023-05-09T17:19:52.044Z,4
2023-05-09T17:21:06.258Z,5
2023-05-09T17:22:20.312Z,5
2023-05-09T17:24:48.622Z,4
2023-05-09T17:26:02.725Z,4
2023-05-09T17:27:16.828Z,4
2023-05-09T17:29:45.213Z,4
2023-05-09T17:30:59.361Z,4
2023-05-09T17:32:13.449Z,4
2023-05-09T17:33:27.494Z,4
2023-05-09T17:35:55.804Z,4
2023-05-09T17:37:10.018Z,4
2023-05-09T17:38:24.072Z,4
2023-05-09T17:40:52.647Z,4
2023-05-09T17:42:06.402Z,4
2023-05-09T17:43:20.600Z,4
2023-05-09T17:45:48.846Z,4
2023-05-09T17:47:05.084Z,4
2023-05-09T17:48:17.122Z,4
2023-05-09T17:50:45.450Z,4
2023-05-09T17:51:59.581Z,4
2023-05-09T17:53:13.729Z,4
2023-05-09T17:55:41.920Z,4
2023-05-09T17:56:56.146Z,4
2023-05-09T17:58:10.176Z,4
2023-05-09T17:59:24.422Z,3
2023-05-09T18:01:52.927Z,4
2023-05-09T18:03:06.878Z,4
2023-05-09T18:04:20.788Z,4
2023-05-09T18:06:49.167Z,4
2023-05-09T18:08:03.273Z,4
2023-05-09T18:09:17.370Z,4
2023-05-09T18:11:45.695Z,4
2023-05-09T18:12:59.903Z,4
2023-05-09T18:14:13.900Z,5
2023-05-09T18:16:42.179Z,4
2023-05-09T18:17:56.349Z,4
2023-05-09T18:19:10.451Z,4
2023-05-09T18:20:24.653Z,5
2023-05-09T18:22:52.999Z,5
2023-05-09T18:24:06.983Z,5
2023-05-09T18:25:21.187Z,5
2023-05-09T18:27:49.780Z,8
2023-05-09T18:29:03.509Z,7
2023-05-09T18:30:17.827Z,6
2023-05-09T18:32:45.972Z,17
2023-05-09T18:34:00.051Z,17
2023-05-09T18:35:14.194Z,17
2023-05-09T18:36:28.268Z,11
2023-05-09T18:37:42.430Z,9
2023-05-09T18:38:56.582Z,8
2023-05-09T18:40:10.783Z,7
2023-05-09T18:41:24.861Z,8
2023-05-09T18:43:53.299Z,5
2023-05-09T18:45:07.231Z,5
2023-05-09T18:46:21.547Z,6
2023-05-09T18:48:49.631Z,6
2023-05-09T18:50:03.840Z,5
2023-05-09T18:51:17.901Z,5
2023-05-09T18:53:46.374Z,6
2023-05-09T18:55:00.424Z,5
2023-05-09T18:56:14.549Z,5
2023-05-09T18:58:42.716Z,5
2023-05-09T18:59:56.945Z,5
2023-05-09T19:01:11.053Z,6
2023-05-09T19:02:25.172Z,5
2023-05-09T19:04:53.419Z,6
2023-05-09T19:06:07.532Z,6
2023-05-09T19:07:21.610Z,5
2023-05-09T19:09:49.857Z,6
2023-05-09T19:11:04.073Z,6
2023-05-09T19:12:18.188Z,5
2023-05-09T19:14:46.457Z,5
2023-05-09T19:16:00.545Z,5
2023-05-09T19:17:14.780Z,5
2023-05-09T19:19:43.118Z,6
2023-05-09T19:20:57.103Z,5
2023-05-09T19:22:11.193Z,6
2023-05-09T19:23:25.486Z,5
2023-05-09T19:25:53.643Z,5
2023-05-09T19:27:07.808Z,5
2023-05-09T19:28:21.884Z,5
2023-05-09T19:30:50.314Z,5
2023-05-09T19:32:04.408Z,4
2023-05-09T19:33:18.433Z,5
2023-05-09T19:35:46.697Z,5
2023-05-09T19:37:00.771Z,5
2023-05-09T19:38:14.962Z,4
2023-05-09T19:40:43.305Z,5
2023-05-09T19:41:59.698Z,5
2023-05-09T19:43:11.492Z,5
2023-05-09T19:44:25.750Z,5
2023-05-09T19:46:53.884Z,5
2023-05-09T19:48:08.111Z,5
2023-05-09T19:49:22.181Z,4
2023-05-09T19:51:50.829Z,4
2023-05-09T19:53:04.568Z,4
2023-05-09T19:54:18.797Z,6
2023-05-09T19:56:46.973Z,4
2023-05-09T19:58:01.198Z,4
2023-05-09T19:59:15.235Z,4
2023-05-09T20:01:43.683Z,5
2023-05-09T20:02:57.744Z,4
2023-05-09T20:04:12.212Z,5
2023-05-09T20:05:25.925Z,5
2023-05-09T20:07:54.118Z,5
2023-05-09T20:09:08.307Z,4
2023-05-09T20:10:22.468Z,4
2023-05-09T20:12:50.693Z,4
2023-05-09T20:14:06.033Z,4
2023-05-09T20:15:18.976Z,4
2023-05-09T20:17:47.291Z,5
2023-05-09T20:19:01.318Z,4
2023-05-09T20:20:15.728Z,3
2023-05-09T20:22:43.744Z,2
2023-05-09T20:23:57.892Z,2
2023-05-09T20:25:12.033Z,2
2023-05-09T20:26:26.306Z,3
2023-05-09T20:28:54.498Z,3
2023-05-09T20:30:08.585Z,3
2023-05-09T20:31:22.795Z,3
2023-05-09T20:33:50.964Z,3
2023-05-09T20:35:05.215Z,2
2023-05-09T20:36:19.408Z,2
2023-05-09T20:38:47.503Z,2
2023-05-09T20:40:01.652Z,2
2023-05-09T20:41:15.776Z,3
2023-05-09T20:43:44.039Z,3
2023-05-09T20:44:58.349Z,3
2023-05-09T20:46:12.412Z,3
2023-05-09T20:47:26.422Z,3
2023-05-09T20:49:55.817Z,3
2023-05-09T20:51:09.001Z,3
2023-05-09T20:52:23.071Z,3
2023-05-09T20:54:51.228Z,4
2023-05-09T20:56:05.354Z,4
2023-05-09T20:57:19.606Z,4
2023-05-09T20:59:47.712Z,4
2023-05-09T21:01:01.946Z,4
2023-05-09T21:02:16.184Z,4
2023-05-09T21:04:44.340Z,4
2023-05-09T21:05:58.436Z,4
2023-05-09T21:07:12.714Z,4
2023-05-09T21:08:26.693Z,4
2023-05-09T21:10:54.936Z,4
2023-05-09T21:12:11.125Z,5
2023-05-09T21:13:23.689Z,5
2023-05-09T21:15:51.593Z,5
2023-05-09T21:17:05.753Z,6
2023-05-09T21:18:19.760Z,5
2023-05-09T21:20:48.020Z,6
2023-05-09T21:22:02.174Z,6
2023-05-09T21:23:16.369Z,6
2023-05-09T21:25:44.678Z,5
2023-05-09T21:26:58.687Z,6
2023-05-09T21:28:12.840Z,6
2023-05-09T21:29:27.063Z,6
2023-05-09T21:31:55.204Z,5
2023-05-09T21:33:09.560Z,5
2023-05-09T21:34:23.479Z,5
2023-05-09T21:36:51.863Z,5
2023-05-09T21:38:05.972Z,5
2023-05-09T21:39:20.011Z,6
2023-05-09T21:41:48.284Z,6
2023-05-09T21:43:02.443Z,6
2023-05-09T21:44:16.530Z,6
2023-05-09T21:46:44.964Z,6
2023-05-09T21:47:59.062Z,6
2023-05-09T21:49:13.168Z,6
2023-05-09T21:50:27.277Z,6
2023-05-09T21:52:55.478Z,5
2023-05-09T21:54:09.627Z,5
2023-05-09T21:55:23.729Z,5
2023-05-09T21:57:52.016Z,5
2023-05-09T21:59:06.157Z,5
2023-05-09T22:00:20.264Z,5
2023-05-09T22:02:48.637Z,5
2023-05-09T22:04:02.750Z,5
2023-05-09T22:05:16.806Z,6
2023-05-09T22:07:45.136Z,5
2023-05-09T22:08:59.287Z,6
2023-05-09T22:10:13.663Z,6
2023-05-09T22:12:41.643Z,6
2023-05-09T22:13:55.721Z,6
2023-05-09T22:15:09.961Z,5
2023-05-09T22:16:24.125Z,6
2023-05-09T22:18:52.275Z,9
2023-05-09T22:20:06.424Z,11
2023-05-09T22:21:20.596Z,7
2023-05-09T22:23:49.323Z,7
2023-05-09T22:25:02.981Z,6
2023-05-09T22:26:17.079Z,6
2023-05-09T22:28:45.498Z,7
2023-05-09T22:29:59.487Z,7
2023-05-09T22:31:13.622Z,7
2023-05-09T22:33:41.976Z,8
2023-05-09T22:34:56.001Z,7
2023-05-09T22:36:10.199Z,7
2023-05-09T22:37:24.345Z,8
2023-05-09T22:39:52.949Z,7
2023-05-09T22:41:06.701Z,7
2023-05-09T22:42:20.786Z,10
2023-05-09T22:44:49.157Z,8
2023-05-09T22:46:03.366Z,7
2023-05-09T22:47:17.361Z,10
2023-05-09T22:49:46.048Z,8
2023-05-09T22:50:59.991Z,10
2023-05-09T22:52:13.904Z,10
2023-05-09T22:54:42.215Z,7
2023-05-09T22:55:56.294Z,7
2023-05-09T22:57:10.380Z,13
2023-05-09T22:58:24.556Z,10
2023-05-09T23:00:53.050Z,6
2023-05-09T23:02:07.030Z,9
2023-05-09T23:03:21.235Z,9
2023-05-09T23:05:49.400Z,14
2023-05-09T23:07:03.483Z,15
2023-05-09T23:08:17.785Z,13
2023-05-09T23:10:45.969Z,18
2023-05-09T23:12:00.172Z,16
2023-05-09T23:13:14.429Z,9
2023-05-09T23:14:28.285Z,8
2023-05-09T23:15:42.578Z,8
2023-05-09T23:16:56.546Z,11
2023-05-09T23:18:10.779Z,9
2023-05-09T23:19:24.903Z,13
2023-05-09T23:21:53.259Z,7
2023-05-09T23:23:07.198Z,12
2023-05-09T23:24:21.327Z,9
2023-05-09T23:26:49.756Z,13
2023-05-09T23:28:03.878Z,12
2023-05-09T23:29:17.948Z,13
2023-05-09T23:31:46.339Z,16